createdAt,value
2022-08-26T00:02:27.964Z,24.22
2022-08-26T00:07:29.995Z,24.21
2022-08-26T00:12:37.554Z,24.38
2022-08-26T00:17:40.466Z,24.17
2022-08-26T00:22:42.727Z,24.33
2022-08-26T00:27:44.724Z,24.37
2022-08-26T00:32:46.515Z,24.11
2022-08-26T00:37:47.986Z,23.98
2022-08-26T00:42:49.977Z,23.99
2022-08-26T00:48:00.999Z,23.90
2022-08-26T00:53:21.424Z,23.89
2022-08-26T00:58:29.399Z,23.90
2022-08-26T01:03:33.426Z,23.76
2022-08-26T01:08:35.196Z,23.80
2022-08-26T01:13:38.230Z,23.53
2022-08-26T01:18:41.168Z,23.54
2022-08-26T01:23:50.722Z,23.43
2022-08-26T01:28:56.537Z,23.34
2022-08-26T01:34:10.694Z,23.51
2022-08-26T01:39:13.068Z,23.36
2022-08-26T01:44:19.675Z,23.29
2022-08-26T01:49:23.222Z,23.30
2022-08-26T01:54:27.727Z,23.16
2022-08-26T01:59:30.153Z,23.10
2022-08-26T02:04:39.407Z,23.12
2022-08-26T02:09:42.131Z,23.00
2022-08-26T02:14:50.061Z,22.91
2022-08-26T02:19:53.277Z,22.91
2022-08-26T02:25:00.202Z,23.25
2022-08-26T02:30:17.172Z,23.22
2022-08-26T02:35:22.073Z,23.24
2022-08-26T02:40:33.688Z,23.20
2022-08-26T02:45:37.273Z,23.18
2022-08-26T02:50:39.982Z,23.10
2022-08-26T02:55:42.178Z,23.07
2022-08-26T03:00:52.780Z,23.19
2022-08-26T03:05:55.130Z,23.02
2022-08-26T03:10:56.680Z,22.95
2022-08-26T03:16:01.344Z,22.87
2022-08-26T03:21:07.899Z,23.02
2022-08-26T03:26:12.100Z,23.12
2022-08-26T03:31:13.925Z,23.20
2022-08-26T03:36:15.836Z,22.94
2022-08-26T03:41:17.969Z,23.17
2022-08-26T03:46:20.497Z,23.06
2022-08-26T03:51:22.638Z,22.82
2022-08-26T03:56:27.076Z,22.87
2022-08-26T04:01:29.019Z,22.88
2022-08-26T04:06:34.651Z,22.94
2022-08-26T04:11:37.812Z,23.12
2022-08-26T04:16:42.274Z,22.94
2022-08-26T04:21:46.924Z,23.03
2022-08-26T04:26:50.281Z,22.80
2022-08-26T04:31:55.567Z,22.82
2022-08-26T04:36:58.335Z,22.88
2022-08-26T04:42:00.276Z,22.96
2022-08-26T04:47:04.615Z,22.77
2022-08-26T04:52:06.197Z,22.86
2022-08-26T04:57:09.294Z,23.01
2022-08-26T05:02:11.372Z,22.90
2022-08-26T05:07:12.881Z,22.77
2022-08-26T05:12:14.393Z,22.98
2022-08-26T05:17:17.964Z,23.02
2022-08-26T05:22:20.145Z,22.87
2022-08-26T05:27:22.039Z,22.88
2022-08-26T05:32:23.722Z,23.03
2022-08-26T05:37:25.315Z,23.02
2022-08-26T05:42:27.025Z,23.02
2022-08-26T05:47:29.912Z,23.08
2022-08-26T05:52:33.218Z,23.10
2022-08-26T05:57:39.946Z,23.16
2022-08-26T06:02:43.738Z,23.09
2022-08-26T06:08:08.772Z,23.19
2022-08-26T06:13:12.644Z,23.13
2022-08-26T06:18:16.637Z,23.19
2022-08-26T06:23:37.008Z,22.94
2022-08-26T06:28:45.529Z,23.15
2022-08-26T06:33:47.442Z,23.05
2022-08-26T06:38:50.499Z,22.96
2022-08-26T06:43:52.331Z,22.93
2022-08-26T06:48:54.600Z,23.07
2022-08-26T06:53:59.528Z,22.87
2022-08-26T06:59:01.202Z,22.83
2022-08-26T07:04:04.845Z,22.77
2022-08-26T07:09:11.889Z,22.96
2022-08-26T07:14:13.873Z,23.26
2022-08-26T07:19:17.371Z,23.20
2022-08-26T07:24:29.329Z,23.30
2022-08-26T07:29:30.921Z,23.19
2022-08-26T07:34:33.343Z,23.11
2022-08-26T07:39:34.989Z,23.09
2022-08-26T07:44:37.837Z,22.80
2022-08-26T07:49:39.465Z,23.09
2022-08-26T07:54:41.169Z,23.19
2022-08-26T07:59:42.707Z,23.19
2022-08-26T08:04:45.332Z,23.09
2022-08-26T08:09:49.569Z,23.17
2022-08-26T08:14:51.341Z,23.26
2022-08-26T08:19:52.941Z,23.54
2022-08-26T08:24:54.739Z,23.40
2022-08-26T08:29:56.944Z,23.52
2022-08-26T08:34:59.326Z,23.64
2022-08-26T08:40:00.897Z,23.65
2022-08-26T08:45:09.731Z,23.49
2022-08-26T08:50:20.519Z,23.64
2022-08-26T08:55:26.705Z,23.83
2022-08-26T09:00:39.689Z,23.89
2022-08-26T09:05:48.791Z,23.93
2022-08-26T09:10:57.082Z,23.81
2022-08-26T09:16:10.105Z,23.88
2022-08-26T09:21:14.213Z,24.18
2022-08-26T09:26:20.077Z,24.12
2022-08-26T09:31:25.089Z,24.27
2022-08-26T09:36:43.745Z,24.03
2022-08-26T09:42:01.094Z,24.19
2022-08-26T09:47:06.924Z,24.39
2022-08-26T09:52:20.158Z,24.36
2022-08-26T09:57:27.806Z,24.18
2022-08-26T10:02:33.441Z,24.14
2022-08-26T10:07:50.502Z,24.26
2022-08-26T10:13:03.106Z,24.19
2022-08-26T10:18:15.715Z,24.00
2022-08-26T10:23:23.371Z,23.92
2022-08-26T10:28:49.775Z,23.81
2022-08-26T10:33:56.660Z,23.92
2022-08-26T10:39:05.223Z,23.92
2022-08-26T10:44:11.313Z,24.10
2022-08-26T10:49:15.605Z,24.04
2022-08-26T10:54:44.009Z,24.17
2022-08-26T10:59:52.704Z,24.32
2022-08-26T11:05:01.889Z,24.20
2022-08-26T11:10:03.273Z,24.22
2022-08-26T11:15:13.643Z,24.31
2022-08-26T11:20:35.375Z,24.23
2022-08-26T11:25:57.184Z,24.36
2022-08-26T11:30:58.958Z,24.22
2022-08-26T11:36:00.609Z,23.94
2022-08-26T11:41:20.716Z,24.05
2022-08-26T11:46:28.242Z,24.04
2022-08-26T11:51:31.453Z,24.18
2022-08-26T11:56:35.970Z,24.46
2022-08-26T12:01:44.469Z,24.36
2022-08-26T12:06:49.806Z,24.46
2022-08-26T12:11:54.113Z,24.36
2022-08-26T12:17:10.249Z,24.42
2022-08-26T12:22:23.205Z,24.40
2022-08-26T12:27:29.479Z,24.61
2022-08-26T12:32:31.961Z,24.37
2022-08-26T12:37:37.433Z,24.24
2022-08-26T12:42:42.381Z,24.06
2022-08-26T12:47:45.985Z,24.03
2022-08-26T12:52:53.934Z,24.00
2022-08-26T12:58:32.737Z,23.77
2022-08-26T13:03:34.149Z,23.73
2022-08-26T13:08:39.266Z,23.65
2022-08-26T13:13:41.059Z,23.57
2022-08-26T13:18:42.585Z,23.57
2022-08-26T13:23:44.625Z,23.33
2022-08-26T13:28:47.709Z,23.39
2022-08-26T13:34:03.913Z,23.28
2022-08-26T13:39:06.678Z,23.31
2022-08-26T13:44:08.210Z,23.31
2022-08-26T13:49:10.528Z,23.25
2022-08-26T13:54:12.021Z,23.68
2022-08-26T13:59:13.543Z,24.21
2022-08-26T14:04:15.143Z,24.53
2022-08-26T14:09:16.656Z,24.56
2022-08-26T14:14:18.184Z,24.79
2022-08-26T14:19:19.785Z,24.75
2022-08-26T14:24:26.208Z,24.81
2022-08-26T14:29:28.213Z,25.02
2022-08-26T14:34:29.744Z,25.13
2022-08-26T14:39:31.222Z,24.86
2022-08-26T14:44:33.581Z,24.65
2022-08-26T14:49:35.156Z,24.74
2022-08-26T14:54:37.706Z,24.96
2022-08-26T14:59:49.635Z,24.96
2022-08-26T15:04:51.827Z,24.70
2022-08-26T15:09:53.625Z,24.72
2022-08-26T15:14:55.117Z,24.36
2022-08-26T15:19:56.846Z,24.31
2022-08-26T15:24:58.425Z,24.09
2022-08-26T15:30:03.112Z,23.95
2022-08-26T15:35:08.882Z,24.02
2022-08-26T15:40:11.130Z,23.96
2022-08-26T15:45:12.762Z,23.93
2022-08-26T15:50:28.884Z,24.04
2022-08-26T15:55:30.395Z,23.92
2022-08-26T16:00:31.912Z,23.61
2022-08-26T16:05:37.696Z,23.60
2022-08-26T16:10:46.500Z,23.48
2022-08-26T16:15:50.833Z,23.33
2022-08-26T16:20:57.411Z,23.22
2022-08-26T16:26:18.493Z,23.24
2022-08-26T16:31:21.498Z,23.43
2022-08-26T16:36:23.096Z,23.14
2022-08-26T16:41:27.105Z,23.22
2022-08-26T16:46:29.033Z,23.16
2022-08-26T16:51:32.383Z,23.10
2022-08-26T16:56:39.489Z,23.17
2022-08-26T17:01:41.033Z,23.16
2022-08-26T17:06:42.585Z,23.30
2022-08-26T17:11:44.576Z,22.93
2022-08-26T17:16:46.720Z,23.17
2022-08-26T17:21:48.310Z,23.21
2022-08-26T17:26:50.719Z,23.23
2022-08-26T17:31:57.339Z,23.26
2022-08-26T17:36:59.322Z,23.17
2022-08-26T17:42:00.806Z,23.19
2022-08-26T17:47:02.367Z,23.11
2022-08-26T17:52:05.854Z,23.14
2022-08-26T17:57:10.706Z,23.08
2022-08-26T18:02:12.390Z,23.09
2022-08-26T18:07:14.445Z,23.12
2022-08-26T18:12:15.972Z,22.99
2022-08-26T18:17:19.419Z,23.03
2022-08-26T18:22:23.088Z,23.17
2022-08-26T18:27:24.589Z,22.81
2022-08-26T18:32:26.087Z,23.02
2022-08-26T18:37:30.922Z,22.98
2022-08-26T18:42:34.010Z,22.86
2022-08-26T18:47:35.949Z,22.83
2022-08-26T18:52:37.523Z,22.83
2022-08-26T18:57:39.900Z,22.85
2022-08-26T19:02:41.603Z,22.94
2022-08-26T19:07:48.458Z,22.80
2022-08-26T19:12:51.914Z,22.91
2022-08-26T19:17:53.884Z,22.80
2022-08-26T19:22:57.428Z,22.71
2022-08-26T19:28:01.199Z,22.57
2022-08-26T19:33:05.175Z,22.30
2022-08-26T19:38:07.238Z,22.49
2022-08-26T19:43:09.912Z,22.61
2022-08-26T19:48:13.550Z,22.31
2022-08-26T19:53:15.380Z,22.29
2022-08-26T19:58:16.897Z,22.21
2022-08-26T20:03:18.508Z,22.23
2022-08-26T20:08:21.838Z,22.10
2022-08-26T20:13:24.118Z,22.29
2022-08-26T20:18:44.328Z,22.25
2022-08-26T20:23:45.846Z,22.07
2022-08-26T20:28:47.378Z,21.93
2022-08-26T20:33:52.753Z,21.96
2022-08-26T20:38:55.321Z,21.86
2022-08-26T20:43:56.921Z,21.95
2022-08-26T20:48:58.419Z,22.04
2022-08-26T20:54:01.355Z,21.79
2022-08-26T20:59:05.576Z,21.98
2022-08-26T21:04:11.395Z,21.94
2022-08-26T21:09:18.689Z,21.92
2022-08-26T21:14:22.737Z,21.87
2022-08-26T21:19:27.294Z,21.87
2022-08-26T21:24:28.783Z,21.86
2022-08-26T21:29:30.301Z,21.83
2022-08-26T21:34:31.929Z,21.78
2022-08-26T21:39:33.531Z,21.59
2022-08-26T21:44:35.057Z,21.48
2022-08-26T21:49:36.608Z,21.55
2022-08-26T21:54:38.382Z,21.44
2022-08-26T21:59:40.685Z,21.58
2022-08-26T22:04:45.629Z,21.33
2022-08-26T22:09:49.677Z,21.52
2022-08-26T22:14:51.298Z,21.34
2022-08-26T22:19:53.070Z,21.27
2022-08-26T22:24:54.805Z,21.10
2022-08-26T22:29:56.357Z,21.10
2022-08-26T22:34:57.857Z,21.31
2022-08-26T22:39:59.419Z,21.16
2022-08-26T22:45:08.381Z,21.00
2022-08-26T22:50:10.071Z,20.91
2022-08-26T22:55:11.722Z,21.06
2022-08-26T23:00:14.121Z,21.01
2022-08-26T23:05:16.303Z,20.99
2022-08-26T23:10:17.937Z,21.04
2022-08-26T23:15:20.800Z,21.08
2022-08-26T23:20:22.456Z,21.04
2022-08-26T23:25:25.215Z,21.14
2022-08-26T23:30:29.606Z,21.14
2022-08-26T23:35:31.110Z,20.90
2022-08-26T23:40:34.917Z,20.95
2022-08-26T23:45:36.897Z,20.84
2022-08-26T23:50:57.065Z,20.68
2022-08-26T23:55:58.596Z,20.62
